Time;durP1;ratioP1;P1;durP2;ratioP2;P2;SDS_P1;SDS_P2;PMS_P1;PMS_P2;Temp;Humidity;BMP_temperature;BMP_pressure;BME280_temperature;BME280_humidity;BME280_pressure;Samples;Min_cycle;Max_cycle;Signal;HPM_P1;HPM_P2
2022/03/07 00:00:12;;;;;;;3.85;1.50;;;;;;;;;;5002412;28;20563;-59
2022/03/07 00:02:38;;;;;;;3.38;1.50;;;;;;;;;;4999736;28;20049;-59
2022/03/07 00:05:04;;;;;;;4.03;1.75;;;;;;;;;;5000178;28;20037;-58
2022/03/07 00:07:30;;;;;;;3.53;1.50;;;;;;;;;;5000103;28;20073;-59
2022/03/07 00:09:56;;;;;;;4.55;1.60;;;;;;;;;;5000858;28;20125;-58
2022/03/07 00:12:22;;;;;;;3.95;1.40;;;;;;;;;;4997557;28;20042;-59
2022/03/07 00:14:48;;;;;;;5.82;1.73;;;;;;;;;;4999820;28;20033;-59
2022/03/07 00:17:14;;;;;;;6.18;1.83;;;;;;;;;;4999218;28;20579;-59
2022/03/07 00:19:40;;;;;;;4.85;1.77;;;;;;;;;;5001207;28;20034;-58
2022/03/07 00:22:06;;;;;;;3.45;1.45;;;;;;;;;;5000308;28;20042;-59
2022/03/07 00:24:32;;;;;;;4.95;1.60;;;;;;;;;;5001619;28;20045;-59
2022/03/07 00:27:01;;;;;;;3.70;1.52;;;;;;;;;;5002909;28;20057;-59
2022/03/07 00:29:27;;;;;;;4.50;1.60;;;;;;;;;;4999474;28;20046;-59
2022/03/07 00:31:53;;;;;;;5.40;1.55;;;;;;;;;;5001051;28;20037;-58
2022/03/07 00:34:19;;;;;;;4.93;1.50;;;;;;;;;;5007719;28;20490;-57
2022/03/07 00:36:45;;;;;;;3.72;1.80;;;;;;;;;;5001312;28;20042;-59
2022/03/07 00:39:11;;;;;;;3.58;1.40;;;;;;;;;;5003870;28;20041;-59
2022/03/07 00:41:37;;;;;;;7.50;1.73;;;;;;;;;;5000679;28;20041;-59
2022/03/07 00:44:03;;;;;;;7.22;1.73;;;;;;;;;;5003222;28;20091;-58
2022/03/07 00:46:29;;;;;;;3.45;1.30;;;;;;;;;;4997005;28;20614;-58
2022/03/07 00:48:54;;;;;;;5.00;1.95;;;;;;;;;;5029069;28;20081;-58
2022/03/07 00:51:23;;;;;;;5.28;2.20;;;;;;;;;;4996303;28;20272;-58
2022/03/07 00:53:49;;;;;;;7.10;1.90;;;;;;;;;;4998614;28;20065;-58
2022/03/07 00:56:15;;;;;;;4.88;2.05;;;;;;;;;;4995787;28;20149;-59
2022/03/07 00:58:41;;;;;;;4.65;1.98;;;;;;;;;;5005630;28;20369;-58
2022/03/07 01:01:07;;;;;;;3.88;1.88;;;;;;;;;;4998687;28;20054;-57
2022/03/07 01:03:33;;;;;;;4.15;1.85;;;;;;;;;;4996528;28;20734;-56
2022/03/07 01:05:59;;;;;;;4.97;1.88;;;;;;;;;;4999242;28;20131;-57
2022/03/07 01:08:26;;;;;;;7.10;2.20;;;;;;;;;;4998054;28;20103;-58
2022/03/07 01:10:52;;;;;;;4.32;2.10;;;;;;;;;;4999739;28;20066;-57
2022/03/07 01:13:18;;;;;;;7.45;2.13;;;;;;;;;;4997185;28;20385;-57
2022/03/07 01:15:45;;;;;;;3.63;1.70;;;;;;;;;;4999625;28;20088;-57
2022/03/07 01:18:11;;;;;;;7.78;2.10;;;;;;;;;;4999006;28;20042;-57
2022/03/07 01:20:36;;;;;;;7.10;3.25;;;;;;;;;;4998532;28;20052;-58
2022/03/07 01:23:02;;;;;;;5.53;1.73;;;;;;;;;;4998711;28;20033;-57
2022/03/07 01:25:29;;;;;;;4.80;1.70;;;;;;;;;;5005301;28;20053;-58
2022/03/07 01:27:55;;;;;;;5.60;2.13;;;;;;;;;;4996971;28;20644;-57
2022/03/07 01:30:21;;;;;;;6.05;2.00;;;;;;;;;;4996053;28;20049;-56
2022/03/07 01:32:47;;;;;;;6.35;2.30;;;;;;;;;;4997039;28;20041;-58
2022/03/07 01:35:13;;;;;;;6.22;2.47;;;;;;;;;;4997190;28;20519;-59
2022/03/07 01:37:39;;;;;;;5.65;2.08;;;;;;;;;;4996918;28;20038;-58
2022/03/07 01:40:05;;;;;;;8.50;2.20;;;;;;;;;;4997714;28;20022;-57
2022/03/07 01:42:31;;;;;;;9.25;2.42;;;;;;;;;;4997056;28;20129;-59
2022/03/07 01:45:06;;;;;;;8.95;2.72;;;;;;;;;;4996805;28;20034;-58
2022/03/07 01:47:33;;;;;;;9.18;2.58;;;;;;;;;;5000033;28;20050;-59
2022/03/07 01:49:59;;;;;;;4.65;2.38;;;;;;;;;;5004160;28;20068;-59
2022/03/07 01:52:24;;;;;;;5.68;2.60;;;;;;;;;;4998965;28;20492;-58
2022/03/07 01:54:50;;;;;;;5.88;1.90;;;;;;;;;;5003064;28;20053;-59
2022/03/07 01:57:16;;;;;;;11.75;2.67;;;;;;;;;;5004228;28;20120;-56
2022/03/07 01:59:42;;;;;;;5.95;2.40;;;;;;;;;;5002616;28;20045;-58
2022/03/07 02:02:08;;;;;;;11.00;2.60;;;;;;;;;;4999433;28;20464;-57
2022/03/07 02:04:40;;;;;;;5.15;2.42;;;;;;;;;;4996681;28;20046;-58
2022/03/07 02:07:06;;;;;;;4.97;2.50;;;;;;;;;;4997367;28;20051;-58
2022/03/07 02:09:32;;;;;;;4.85;2.25;;;;;;;;;;5013331;28;20049;-58
2022/03/07 02:11:58;;;;;;;7.32;2.58;;;;;;;;;;5006125;28;20091;-58
2022/03/07 02:14:24;;;;;;;8.50;2.38;;;;;;;;;;4996743;28;20046;-57
2022/03/07 02:16:50;;;;;;;4.75;1.95;;;;;;;;;;5000425;28;20780;-56
2022/03/07 02:19:16;;;;;;;4.38;2.05;;;;;;;;;;5001804;28;20037;-56
2022/03/07 02:21:44;;;;;;;8.88;2.28;;;;;;;;;;5001934;28;20503;-57
2022/03/07 02:24:10;;;;;;;7.93;2.30;;;;;;;;;;5003865;28;20038;-57
2022/03/07 02:26:36;;;;;;;6.63;2.60;;;;;;;;;;5000403;28;20058;-56
2022/03/07 02:29:02;;;;;;;6.85;2.50;;;;;;;;;;5003832;28;20103;-58
2022/03/07 02:31:29;;;;;;;8.43;2.78;;;;;;;;;;5000650;28;20153;-57
2022/03/07 02:33:55;;;;;;;7.35;2.95;;;;;;;;;;5001486;28;20048;-58
2022/03/07 02:36:21;;;;;;;5.13;1.90;;;;;;;;;;5000066;28;20042;-58
2022/03/07 02:38:47;;;;;;;5.18;2.28;;;;;;;;;;4999124;28;21172;-57
2022/03/07 02:41:14;;;;;;;6.97;3.08;;;;;;;;;;5033284;28;20042;-58
2022/03/07 02:43:39;;;;;;;6.45;2.30;;;;;;;;;;5002434;28;20030;-57
2022/03/07 02:46:05;;;;;;;5.32;2.70;;;;;;;;;;5001058;28;20031;-56
2022/03/07 02:48:31;;;;;;;6.38;2.60;;;;;;;;;;5001679;28;20069;-58
2022/03/07 02:50:58;;;;;;;6.90;2.50;;;;;;;;;;5003990;28;20057;-59
2022/03/07 02:53:24;;;;;;;6.55;2.85;;;;;;;;;;5012439;28;20043;-58
2022/03/07 02:55:51;;;;;;;8.02;2.40;;;;;;;;;;4999741;28;20149;-56
2022/03/07 02:58:16;;;;;;;6.30;2.17;;;;;;;;;;5001011;28;21068;-57
2022/03/07 03:00:42;;;;;;;9.27;2.53;;;;;;;;;;4999228;28;20042;-57
2022/03/07 03:03:08;;;;;;;9.50;2.33;;;;;;;;;;5000151;28;20706;-56
2022/03/07 03:05:34;;;;;;;8.07;2.70;;;;;;;;;;4999150;28;20096;-57
2022/03/07 03:08:00;;;;;;;5.13;2.60;;;;;;;;;;4998308;28;20120;-56
2022/03/07 03:10:26;;;;;;;6.15;2.72;;;;;;;;;;5015037;28;20061;-57
2022/03/07 03:12:52;;;;;;;5.65;2.60;;;;;;;;;;4999118;28;20369;-58
2022/03/07 03:15:18;;;;;;;8.77;2.75;;;;;;;;;;4998497;28;20054;-56
2022/03/07 03:17:44;;;;;;;3.42;1.73;;;;;;;;;;5002737;28;20033;-56
2022/03/07 03:20:11;;;;;;;5.65;2.45;;;;;;;;;;5002569;28;20061;-56
2022/03/07 03:22:38;;;;;;;8.65;2.75;;;;;;;;;;5002279;28;20067;-56
2022/03/07 03:25:04;;;;;;;5.13;2.45;;;;;;;;;;5006593;28;20464;-58
2022/03/07 03:27:30;;;;;;;8.27;2.95;;;;;;;;;;5005377;28;20099;-57
2022/03/07 03:29:56;;;;;;;5.82;2.67;;;;;;;;;;5003403;28;20057;-56
2022/03/07 03:32:23;;;;;;;5.32;2.63;;;;;;;;;;4999444;28;20440;-54
2022/03/07 03:34:49;;;;;;;4.57;2.38;;;;;;;;;;5002017;28;20048;-56
2022/03/07 03:37:14;;;;;;;5.80;2.40;;;;;;;;;;4999259;28;20782;-55
2022/03/07 03:39:40;;;;;;;7.00;2.72;;;;;;;;;;4999896;28;20041;-56
2022/03/07 03:42:06;;;;;;;4.88;1.98;;;;;;;;;;5001799;28;20034;-56
2022/03/07 03:44:32;;;;;;;11.20;2.63;;;;;;;;;;4998726;28;20038;-57
2022/03/07 03:46:58;;;;;;;6.43;1.98;;;;;;;;;;5003053;28;20050;-56
2022/03/07 03:49:24;;;;;;;6.85;2.50;;;;;;;;;;4998838;28;20119;-57
2022/03/07 03:51:50;;;;;;;4.35;1.92;;;;;;;;;;4999825;28;20125;-57
2022/03/07 03:54:16;;;;;;;5.38;2.53;;;;;;;;;;5002991;28;20050;-56
2022/03/07 03:56:42;;;;;;;5.13;2.35;;;;;;;;;;5001105;28;20053;-58
2022/03/07 03:59:08;;;;;;;5.97;2.58;;;;;;;;;;5002684;28;20771;-56
2022/03/07 04:01:34;;;;;;;6.85;2.28;;;;;;;;;;4999239;28;20056;-56
2022/03/07 04:04:00;;;;;;;6.88;2.30;;;;;;;;;;4997562;28;20046;-56
2022/03/07 04:06:26;;;;;;;4.53;2.15;;;;;;;;;;4999527;28;20113;-55
2022/03/07 04:08:53;;;;;;;4.60;2.10;;;;;;;;;;5001486;28;20124;-55
2022/03/07 04:11:20;;;;;;;6.88;2.17;;;;;;;;;;4998077;28;20076;-55
2022/03/07 04:13:46;;;;;;;5.60;2.05;;;;;;;;;;5001416;28;20033;-56
2022/03/07 04:16:12;;;;;;;4.85;2.30;;;;;;;;;;5001731;28;20045;-55
2022/03/07 04:18:38;;;;;;;10.43;2.50;;;;;;;;;;4999422;28;20048;-56
2022/03/07 04:21:04;;;;;;;4.80;2.17;;;;;;;;;;4999915;28;20400;-56
2022/03/07 04:23:31;;;;;;;6.97;2.50;;;;;;;;;;4998611;28;20048;-57
2022/03/07 04:25:57;;;;;;;6.85;2.38;;;;;;;;;;4999328;28;20029;-58
2022/03/07 04:28:23;;;;;;;4.50;2.20;;;;;;;;;;4999974;28;20053;-55
2022/03/07 04:30:49;;;;;;;5.53;2.65;;;;;;;;;;4999202;28;20038;-56
2022/03/07 04:33:15;;;;;;;5.43;2.65;;;;;;;;;;4996641;28;20776;-57
2022/03/07 04:35:41;;;;;;;7.00;2.83;;;;;;;;;;4998973;28;20099;-56
2022/03/07 04:38:07;;;;;;;5.13;2.40;;;;;;;;;;4999729;28;20041;-57
2022/03/07 04:40:33;;;;;;;5.60;2.28;;;;;;;;;;4997822;28;20044;-56
2022/03/07 04:43:01;;;;;;;4.65;2.55;;;;;;;;;;4999909;28;20042;-56
2022/03/07 04:45:27;;;;;;;7.60;2.47;;;;;;;;;;4999891;28;20050;-56
2022/03/07 04:47:53;;;;;;;7.47;2.55;;;;;;;;;;5017404;28;20152;-56
2022/03/07 04:50:18;;;;;;;10.57;2.13;;;;;;;;;;5001864;28;20034;-56
2022/03/07 04:52:45;;;;;;;12.20;2.47;;;;;;;;;;5001235;28;20053;-57
2022/03/07 04:55:11;;;;;;;6.53;2.75;;;;;;;;;;4999197;28;20042;-55
2022/03/07 04:57:38;;;;;;;7.82;2.55;;;;;;;;;;5009559;28;22513;-54
2022/03/07 05:00:06;;;;;;;5.22;2.30;;;;;;;;;;5003847;28;20041;-56
2022/03/07 05:02:32;;;;;;;8.23;2.90;;;;;;;;;;5002144;28;20070;-59
2022/03/07 05:04:58;;;;;;;7.47;2.83;;;;;;;;;;5001012;28;20503;-56
2022/03/07 05:07:24;;;;;;;9.30;2.70;;;;;;;;;;5009961;28;20116;-57
2022/03/07 05:09:50;;;;;;;7.88;2.55;;;;;;;;;;5001933;28;20064;-56
2022/03/07 05:12:16;;;;;;;6.43;2.65;;;;;;;;;;5003142;28;20045;-57
2022/03/07 05:14:42;;;;;;;7.03;2.63;;;;;;;;;;5006321;28;20644;-55
2022/03/07 05:17:08;;;;;;;6.28;2.60;;;;;;;;;;5006456;28;20038;-58
2022/03/07 05:19:36;;;;;;;5.45;2.47;;;;;;;;;;5010270;28;20131;-57
2022/03/07 05:22:02;;;;;;;9.85;3.22;;;;;;;;;;5000847;28;20822;-56
2022/03/07 05:24:27;;;;;;;6.22;2.20;;;;;;;;;;5004793;28;20086;-56
2022/03/07 05:26:53;;;;;;;6.13;2.20;;;;;;;;;;5000866;28;20052;-56
2022/03/07 05:29:20;;;;;;;6.78;2.67;;;;;;;;;;4998745;28;20057;-56
2022/03/07 05:31:46;;;;;;;5.25;2.33;;;;;;;;;;4998916;28;20768;-57
2022/03/07 05:34:12;;;;;;;4.63;1.90;;;;;;;;;;5000771;28;20042;-55
2022/03/07 05:36:38;;;;;;;6.20;2.22;;;;;;;;;;4996218;28;20080;-56
2022/03/07 05:39:04;;;;;;;8.10;2.50;;;;;;;;;;4998381;28;20115;-55
2022/03/07 05:41:30;;;;;;;6.78;2.20;;;;;;;;;;4998477;28;20040;-55
2022/03/07 05:43:56;;;;;;;5.50;2.35;;;;;;;;;;4996594;28;20042;-54
2022/03/07 05:46:22;;;;;;;11.20;2.40;;;;;;;;;;4997294;28;20049;-56
2022/03/07 05:48:48;;;;;;;20.23;2.78;;;;;;;;;;4999451;28;20077;-56
2022/03/07 05:51:16;;;;;;;4.68;2.20;;;;;;;;;;4995503;28;20038;-56
2022/03/07 05:53:41;;;;;;;6.00;2.20;;;;;;;;;;4998217;28;20046;-55
2022/03/07 05:56:07;;;;;;;5.38;2.22;;;;;;;;;;4997598;28;20084;-55
2022/03/07 05:58:34;;;;;;;5.28;2.20;;;;;;;;;;4995720;28;20030;-56
2022/03/07 06:00:59;;;;;;;4.35;1.75;;;;;;;;;;5008895;28;20041;-55
2022/03/07 06:03:25;;;;;;;4.28;1.77;;;;;;;;;;5002168;28;20046;-56
2022/03/07 06:05:51;;;;;;;3.90;1.75;;;;;;;;;;4999253;28;20053;-57
2022/03/07 06:08:17;;;;;;;7.65;2.30;;;;;;;;;;4998678;28;20541;-56
2022/03/07 06:10:43;;;;;;;5.97;2.17;;;;;;;;;;4998979;28;20042;-57
2022/03/07 06:13:09;;;;;;;4.97;2.00;;;;;;;;;;4997343;28;20099;-57
2022/03/07 06:15:35;;;;;;;5.85;2.30;;;;;;;;;;4996984;28;21827;-56
2022/03/07 06:18:01;;;;;;;5.20;2.22;;;;;;;;;;4997103;28;20038;-58
2022/03/07 06:20:27;;;;;;;4.10;2.17;;;;;;;;;;4996138;28;20039;-56
2022/03/07 06:22:53;;;;;;;4.65;2.22;;;;;;;;;;4996782;28;20504;-55
2022/03/07 06:25:19;;;;;;;5.70;1.98;;;;;;;;;;4998631;28;20042;-59
2022/03/07 06:27:45;;;;;;;5.88;2.10;;;;;;;;;;5011205;28;20085;-56
2022/03/07 06:30:11;;;;;;;6.13;2.65;;;;;;;;;;4997654;28;20042;-54
2022/03/07 06:32:38;;;;;;;9.88;2.20;;;;;;;;;;4996359;28;20046;-59
2022/03/07 06:35:04;;;;;;;4.95;2.15;;;;;;;;;;4998871;28;20076;-55
2022/03/07 06:37:30;;;;;;;4.65;2.00;;;;;;;;;;4996747;28;20042;-55
2022/03/07 06:39:56;;;;;;;7.10;2.28;;;;;;;;;;4997147;28;20742;-56
2022/03/07 06:42:22;;;;;;;6.47;2.10;;;;;;;;;;4996687;28;20052;-57
2022/03/07 06:44:48;;;;;;;6.93;2.47;;;;;;;;;;4999234;28;20034;-56
2022/03/07 06:47:16;;;;;;;5.95;1.95;;;;;;;;;;5030077;28;20619;-60
2022/03/07 06:49:45;;;;;;;6.40;2.17;;;;;;;;;;4996532;28;20188;-55
2022/03/07 06:52:12;;;;;;;6.68;2.00;;;;;;;;;;4994956;28;20053;-56
2022/03/07 06:54:37;;;;;;;6.38;2.40;;;;;;;;;;4996505;28;20087;-56
2022/03/07 06:57:03;;;;;;;5.57;2.25;;;;;;;;;;5027023;28;20117;-53
2022/03/07 06:59:30;;;;;;;6.38;2.25;;;;;;;;;;4996511;28;20768;-56
2022/03/07 07:01:56;;;;;;;5.00;2.22;;;;;;;;;;4996378;28;20057;-55
2022/03/07 07:04:22;;;;;;;9.55;2.10;;;;;;;;;;4999674;28;20411;-56
2022/03/07 07:06:48;;;;;;;6.55;1.60;;;;;;;;;;4997394;28;20054;-57
2022/03/07 07:09:13;;;;;;;4.50;1.92;;;;;;;;;;4998581;28;20076;-57
2022/03/07 07:11:59;;;;;;;6.43;1.73;;;;;;;;;;5040454;28;20143;-54
2022/03/07 07:14:25;;;;;;;5.82;1.52;;;;;;;;;;5040068;28;20040;-55
2022/03/07 07:16:51;;;;;;;3.92;1.60;;;;;;;;;;5039521;28;20049;-53
2022/03/07 07:19:17;;;;;;;3.03;1.20;;;;;;;;;;5042883;28;20055;-56
2022/03/07 07:21:43;;;;;;;5.10;1.80;;;;;;;;;;5039662;28;20041;-54
2022/03/07 07:24:09;;;;;;;5.13;2.00;;;;;;;;;;5040341;28;20056;-56
2022/03/07 07:26:35;;;;;;;6.90;2.08;;;;;;;;;;5039632;28;20028;-56
2022/03/07 07:29:01;;;;;;;4.10;1.85;;;;;;;;;;5042307;28;20415;-55
2022/03/07 07:31:27;;;;;;;13.63;2.58;;;;;;;;;;5041808;28;20146;-56
2022/03/07 07:33:53;;;;;;;4.65;1.85;;;;;;;;;;5043177;28;20041;-57
2022/03/07 07:36:19;;;;;;;3.92;1.70;;;;;;;;;;5039899;28;20436;-56
2022/03/07 07:38:44;;;;;;;6.03;2.05;;;;;;;;;;5042525;28;20587;-56
2022/03/07 07:41:10;;;;;;;4.18;1.42;;;;;;;;;;5041299;28;20495;-55
2022/03/07 07:43:36;;;;;;;4.40;1.42;;;;;;;;;;5041159;28;20036;-56
2022/03/07 07:46:03;;;;;;;5.28;1.50;;;;;;;;;;5037949;28;20036;-56
2022/03/07 07:48:29;;;;;;;2.83;1.00;;;;;;;;;;5039897;28;20395;-57
2022/03/07 07:50:54;;;;;;;3.33;1.10;;;;;;;;;;5003036;28;20038;-56
2022/03/07 07:53:20;;;;;;;2.97;1.15;;;;;;;;;;5005696;28;20034;-57
2022/03/07 07:55:46;;;;;;;3.00;1.00;;;;;;;;;;5000790;28;20045;-57
2022/03/07 07:58:12;;;;;;;3.92;0.82;;;;;;;;;;5003024;28;20038;-57
2022/03/07 08:00:38;;;;;;;2.80;1.02;;;;;;;;;;5002180;28;20057;-58
2022/03/07 08:03:04;;;;;;;3.00;1.00;;;;;;;;;;5001219;28;20119;-57
2022/03/07 08:05:30;;;;;;;3.15;0.90;;;;;;;;;;4999290;28;20045;-56
2022/03/07 08:07:56;;;;;;;3.15;1.05;;;;;;;;;;5005793;28;20061;-57
2022/03/07 08:10:22;;;;;;;3.20;0.90;;;;;;;;;;4997480;28;20057;-56
2022/03/07 08:12:48;;;;;;;4.72;1.25;;;;;;;;;;4998905;28;20045;-56
2022/03/07 08:15:14;;;;;;;2.97;1.10;;;;;;;;;;4996319;28;20046;-55
2022/03/07 08:17:43;;;;;;;3.55;1.08;;;;;;;;;;4998755;28;20065;-56
2022/03/07 08:20:09;;;;;;;2.40;1.00;;;;;;;;;;4999312;28;20085;-54
2022/03/07 08:22:35;;;;;;;4.22;1.13;;;;;;;;;;4996523;28;20048;-57
2022/03/07 08:25:02;;;;;;;3.03;1.00;;;;;;;;;;4998587;28;20035;-55
2022/03/07 08:27:28;;;;;;;4.18;1.20;;;;;;;;;;4997156;28;20408;-57
2022/03/07 08:29:53;;;;;;;4.13;0.90;;;;;;;;;;4997613;28;20042;-56
2022/03/07 08:32:19;;;;;;;3.70;1.00;;;;;;;;;;4997122;28;20053;-56
2022/03/07 08:34:45;;;;;;;2.40;0.93;;;;;;;;;;4998908;28;20072;-55
2022/03/07 08:37:11;;;;;;;2.70;1.00;;;;;;;;;;4996187;28;20049;-55
2022/03/07 08:39:37;;;;;;;3.42;0.90;;;;;;;;;;4999455;28;20050;-57
2022/03/07 08:42:03;;;;;;;2.38;0.77;;;;;;;;;;4999055;28;20042;-57
2022/03/07 08:44:29;;;;;;;3.25;0.95;;;;;;;;;;4997887;28;20075;-56
2022/03/07 08:46:55;;;;;;;2.45;0.70;;;;;;;;;;4997424;28;20053;-55
2022/03/07 08:49:21;;;;;;;1.95;0.70;;;;;;;;;;5000626;28;20317;-56
2022/03/07 08:51:46;;;;;;;3.05;0.98;;;;;;;;;;4998533;28;20076;-56
2022/03/07 08:54:14;;;;;;;2.83;0.88;;;;;;;;;;4999661;28;20033;-56
2022/03/07 08:56:40;;;;;;;3.60;1.00;;;;;;;;;;4999216;28;20044;-55
2022/03/07 08:59:06;;;;;;;5.72;1.15;;;;;;;;;;4998658;28;20069;-57
2022/03/07 09:01:32;;;;;;;3.35;1.13;;;;;;;;;;4998065;28;20072;-57
2022/03/07 09:03:57;;;;;;;3.20;1.00;;;;;;;;;;4999306;28;20042;-56
2022/03/07 09:06:23;;;;;;;2.63;0.90;;;;;;;;;;4996299;28;20574;-55
2022/03/07 09:08:49;;;;;;;4.70;1.00;;;;;;;;;;4998040;28;20133;-56
2022/03/07 09:11:15;;;;;;;2.88;0.90;;;;;;;;;;4999106;28;20050;-55
2022/03/07 09:13:41;;;;;;;2.35;0.90;;;;;;;;;;4997149;28;20144;-56
2022/03/07 09:16:07;;;;;;;2.45;0.80;;;;;;;;;;4997029;28;20046;-55
2022/03/07 09:18:33;;;;;;;2.28;0.90;;;;;;;;;;4997260;28;20046;-54
2022/03/07 09:20:59;;;;;;;2.55;1.00;;;;;;;;;;4997040;28;20049;-57
2022/03/07 09:23:27;;;;;;;3.00;0.98;;;;;;;;;;4994935;28;20122;-57
2022/03/07 09:25:52;;;;;;;2.72;0.90;;;;;;;;;;4995426;28;20041;-57
2022/03/07 09:28:18;;;;;;;2.80;1.00;;;;;;;;;;4997593;28;20056;-57
2022/03/07 09:30:44;;;;;;;3.05;1.08;;;;;;;;;;4997920;28;20060;-57
2022/03/07 09:33:10;;;;;;;3.00;1.00;;;;;;;;;;4998745;28;20073;-57
2022/03/07 09:35:36;;;;;;;2.13;0.80;;;;;;;;;;4998188;28;20586;-55
2022/03/07 09:38:02;;;;;;;3.13;1.00;;;;;;;;;;4999433;28;20052;-55
2022/03/07 09:40:28;;;;;;;2.80;0.82;;;;;;;;;;4996698;28;20049;-56
2022/03/07 09:42:54;;;;;;;2.47;0.90;;;;;;;;;;4996273;28;20514;-56
2022/03/07 09:45:20;;;;;;;4.15;0.90;;;;;;;;;;4994472;28;20050;-56
2022/03/07 09:47:48;;;;;;;2.90;1.20;;;;;;;;;;4994264;28;20136;-56
2022/03/07 09:50:14;;;;;;;2.95;1.10;;;;;;;;;;4996813;28;20046;-57
2022/03/07 09:52:42;;;;;;;2.83;1.10;;;;;;;;;;4995903;28;20060;-56
2022/03/07 09:55:09;;;;;;;2.70;1.00;;;;;;;;;;4995168;28;20041;-57
2022/03/07 09:57:35;;;;;;;4.57;1.00;;;;;;;;;;4996726;28;21059;-56
2022/03/07 10:00:01;;;;;;;2.20;0.60;;;;;;;;;;4998643;28;20043;-56
2022/03/07 10:02:28;;;;;;;2.20;0.90;;;;;;;;;;4995631;28;20041;-56
2022/03/07 10:04:59;;;;;;;2.80;1.00;;;;;;;;;;4995860;28;20121;-56
2022/03/07 10:07:25;;;;;;;3.15;1.10;;;;;;;;;;4997914;28;20046;-56
2022/03/07 10:10:01;;;;;;;2.38;0.80;;;;;;;;;;4994698;28;20046;-56
2022/03/07 10:12:28;;;;;;;3.20;0.77;;;;;;;;;;5027268;28;20042;-57
2022/03/07 10:14:54;;;;;;;2.92;0.90;;;;;;;;;;4997569;28;20053;-56
2022/03/07 10:17:27;;;;;;;2.97;1.00;;;;;;;;;;4994045;28;20038;-56
2022/03/07 10:19:54;;;;;;;2.80;0.90;;;;;;;;;;4998988;28;20175;-57
2022/03/07 10:22:22;;;;;;;2.63;1.10;;;;;;;;;;5027608;28;20030;-57
2022/03/07 10:24:56;;;;;;;3.50;1.00;;;;;;;;;;4998299;28;20477;-57
2022/03/07 10:27:26;;;;;;;3.08;1.05;;;;;;;;;;4997617;28;20054;-56
2022/03/07 10:29:52;;;;;;;2.40;0.85;;;;;;;;;;4997291;28;20038;-57
2022/03/07 10:32:18;;;;;;;2.65;1.00;;;;;;;;;;4995010;28;20045;-54
2022/03/07 10:34:44;;;;;;;3.20;1.20;;;;;;;;;;4996218;28;20456;-58
2022/03/07 10:37:11;;;;;;;2.05;0.70;;;;;;;;;;4996968;28;20044;-57
2022/03/07 10:39:37;;;;;;;2.90;0.90;;;;;;;;;;4997492;28;20119;-55
2022/03/07 10:42:03;;;;;;;2.35;0.70;;;;;;;;;;4997023;28;20583;-57
2022/03/07 10:44:30;;;;;;;2.40;0.90;;;;;;;;;;4994828;28;20411;-57
2022/03/07 10:47:13;;;;;;;3.13;1.08;;;;;;;;;;4996182;28;20050;-56
2022/03/07 10:49:58;;;;;;;3.08;0.80;;;;;;;;;;4996265;28;20034;-57
2022/03/07 10:52:24;;;;;;;2.75;0.80;;;;;;;;;;4995429;28;20034;-56
2022/03/07 10:54:51;;;;;;;2.22;0.80;;;;;;;;;;4997198;28;20042;-56
2022/03/07 10:57:17;;;;;;;1.98;0.65;;;;;;;;;;4997438;28;20380;-57
2022/03/07 10:59:43;;;;;;;2.13;0.75;;;;;;;;;;4996250;28;20034;-55
2022/03/07 11:02:10;;;;;;;2.25;0.85;;;;;;;;;;4998926;28;20073;-57
2022/03/07 11:04:37;;;;;;;2.47;0.90;;;;;;;;;;4996911;28;20332;-57
2022/03/07 11:07:04;;;;;;;2.10;0.70;;;;;;;;;;4998901;28;20547;-57
2022/03/07 11:09:29;;;;;;;2.40;0.80;;;;;;;;;;4999911;28;20050;-57
2022/03/07 11:11:55;;;;;;;2.83;0.80;;;;;;;;;;5000409;28;20111;-57
2022/03/07 11:14:22;;;;;;;2.92;0.70;;;;;;;;;;4999076;28;20453;-57
2022/03/07 11:16:56;;;;;;;2.45;0.80;;;;;;;;;;5001883;28;20054;-57
2022/03/07 11:19:23;;;;;;;4.05;0.90;;;;;;;;;;4998448;28;20045;-57
2022/03/07 11:21:51;;;;;;;3.47;0.90;;;;;;;;;;4998946;28;20034;-57
2022/03/07 11:24:21;;;;;;;1.85;0.70;;;;;;;;;;4997486;28;20642;-57
2022/03/07 11:26:48;;;;;;;2.80;0.80;;;;;;;;;;4996518;28;20034;-56
2022/03/07 11:29:15;;;;;;;4.10;1.00;;;;;;;;;;4998783;28;20501;-59
2022/03/07 11:31:41;;;;;;;1.80;0.63;;;;;;;;;;5000512;28;20049;-54
2022/03/07 11:34:08;;;;;;;2.05;0.65;;;;;;;;;;4999401;28;20033;-57
2022/03/07 11:36:38;;;;;;;4.40;0.80;;;;;;;;;;4997642;28;20459;-57
2022/03/07 11:39:05;;;;;;;2.65;0.80;;;;;;;;;;4999566;28;20041;-57
2022/03/07 11:41:32;;;;;;;2.45;0.82;;;;;;;;;;4997529;28;20041;-57
2022/03/07 11:44:00;;;;;;;2.05;0.60;;;;;;;;;;4999376;28;20044;-57
2022/03/07 11:46:30;;;;;;;5.10;1.20;;;;;;;;;;4997383;28;20526;-58
2022/03/07 11:48:56;;;;;;;3.67;1.00;;;;;;;;;;4999969;28;20100;-56
2022/03/07 11:51:24;;;;;;;2.42;0.82;;;;;;;;;;4998255;28;20031;-58
2022/03/07 11:53:50;;;;;;;2.13;0.90;;;;;;;;;;5002398;28;20041;-57
2022/03/07 11:56:17;;;;;;;2.25;0.80;;;;;;;;;;5004233;28;20100;-57
2022/03/07 11:58:50;;;;;;;2.95;0.80;;;;;;;;;;5002365;28;20042;-58
2022/03/07 12:01:17;;;;;;;2.03;0.65;;;;;;;;;;5001463;28;20065;-54
2022/03/07 12:03:43;;;;;;;2.00;0.70;;;;;;;;;;4998971;28;20052;-57
2022/03/07 12:06:11;;;;;;;2.53;0.70;;;;;;;;;;5000291;28;20076;-56
2022/03/07 12:08:53;;;;;;;4.30;1.00;;;;;;;;;;5000755;28;20082;-57
2022/03/07 12:11:33;;;;;;;2.60;0.80;;;;;;;;;;4999248;28;20512;-54
2022/03/07 12:14:02;;;;;;;9.18;0.80;;;;;;;;;;4999496;28;20044;-55
2022/03/07 12:16:36;;;;;;;1.98;0.60;;;;;;;;;;4998027;28;20661;-55
2022/03/07 12:19:06;;;;;;;1.98;0.68;;;;;;;;;;4999852;28;20969;-57
2022/03/07 12:21:33;;;;;;;2.25;0.70;;;;;;;;;;4997999;28;20038;-58
2022/03/07 12:23:59;;;;;;;7.18;0.90;;;;;;;;;;4999957;28;20038;-57
2022/03/07 12:26:25;;;;;;;3.22;0.90;;;;;;;;;;4998027;28;20096;-56
2022/03/07 12:28:51;;;;;;;3.53;0.80;;;;;;;;;;4999882;28;20145;-57
2022/03/07 12:31:17;;;;;;;2.13;0.80;;;;;;;;;;4999162;28;20069;-57
2022/03/07 12:33:46;;;;;;;2.90;0.82;;;;;;;;;;4999202;28;20067;-56
2022/03/07 12:36:14;;;;;;;3.42;1.02;;;;;;;;;;4998612;28;20041;-57
2022/03/07 12:38:47;;;;;;;5.28;0.80;;;;;;;;;;4997887;28;20052;-56
2022/03/07 12:41:14;;;;;;;3.17;0.77;;;;;;;;;;4997061;28;20038;-57
2022/03/07 12:43:40;;;;;;;3.65;0.93;;;;;;;;;;4999631;28;20124;-57
2022/03/07 12:46:06;;;;;;;3.83;0.68;;;;;;;;;;5000849;28;20034;-56
2022/03/07 12:48:36;;;;;;;2.05;0.73;;;;;;;;;;4999952;28;20882;-57
2022/03/07 12:51:09;;;;;;;2.60;0.80;;;;;;;;;;5001708;28;20161;-57
2022/03/07 12:53:36;;;;;;;2.60;0.90;;;;;;;;;;5000140;28;20042;-55
2022/03/07 12:56:05;;;;;;;2.15;0.57;;;;;;;;;;4998165;28;20045;-56
2022/03/07 12:58:31;;;;;;;2.15;0.60;;;;;;;;;;5004592;28;20076;-55
2022/03/07 13:00:57;;;;;;;2.45;0.82;;;;;;;;;;5012831;28;20049;-57
2022/03/07 13:03:24;;;;;;;3.35;0.82;;;;;;;;;;4996578;28;20041;-57
2022/03/07 13:06:02;;;;;;;2.20;0.77;;;;;;;;;;4999122;28;20058;-57
2022/03/07 13:08:28;;;;;;;2.50;0.70;;;;;;;;;;5000312;28;20046;-55
2022/03/07 13:10:54;;;;;;;6.32;0.88;;;;;;;;;;5002722;28;20054;-58
2022/03/07 13:13:20;;;;;;;2.35;0.80;;;;;;;;;;5002754;28;20060;-56
2022/03/07 13:15:47;;;;;;;2.30;0.70;;;;;;;;;;5003130;28;20119;-55
2022/03/07 13:18:12;;;;;;;2.33;0.90;;;;;;;;;;5002188;28;20104;-56
2022/03/07 13:20:38;;;;;;;3.63;0.90;;;;;;;;;;4998598;28;20491;-56
2022/03/07 13:23:05;;;;;;;4.72;0.80;;;;;;;;;;4999474;28;20026;-56
2022/03/07 13:25:45;;;;;;;3.85;0.80;;;;;;;;;;4997086;28;20069;-56
2022/03/07 13:28:11;;;;;;;1.92;0.80;;;;;;;;;;4995739;28;20072;-52
2022/03/07 13:30:38;;;;;;;2.67;0.80;;;;;;;;;;4994940;28;20157;-56
2022/03/07 13:33:05;;;;;;;2.03;0.70;;;;;;;;;;4995558;28;20056;-56
2022/03/07 13:35:31;;;;;;;1.90;0.70;;;;;;;;;;4995903;28;21618;-56
2022/03/07 13:37:57;;;;;;;2.50;0.80;;;;;;;;;;5000195;28;20034;-56
2022/03/07 13:40:25;;;;;;;1.55;0.52;;;;;;;;;;4995192;28;20080;-57
2022/03/07 13:42:52;;;;;;;3.97;0.90;;;;;;;;;;4996698;28;20040;-54
2022/03/07 13:45:22;;;;;;;3.03;0.90;;;;;;;;;;4996089;28;20038;-53
2022/03/07 13:47:52;;;;;;;2.83;0.93;;;;;;;;;;5026401;28;20381;-57
2022/03/07 13:50:24;;;;;;;2.03;0.70;;;;;;;;;;4993144;28;20507;-56
2022/03/07 13:52:59;;;;;;;2.78;0.82;;;;;;;;;;4998612;28;20124;-57
2022/03/07 13:55:25;;;;;;;3.15;0.82;;;;;;;;;;4995285;28;20042;-57
2022/03/07 13:57:53;;;;;;;2.70;1.00;;;;;;;;;;4998229;28;20045;-54
2022/03/07 14:00:20;;;;;;;3.00;1.02;;;;;;;;;;4997886;28;20030;-57
2022/03/07 14:02:49;;;;;;;1.58;0.60;;;;;;;;;;5000879;28;20864;-58
2022/03/07 14:05:16;;;;;;;2.72;0.70;;;;;;;;;;5000441;28;20142;-54
2022/03/07 14:07:46;;;;;;;4.22;1.00;;;;;;;;;;4998126;28;20043;-55
2022/03/07 14:10:13;;;;;;;2.75;0.80;;;;;;;;;;5000139;28;20646;-56
2022/03/07 14:12:40;;;;;;;6.13;0.90;;;;;;;;;;5010778;28;20042;-56
2022/03/07 14:15:07;;;;;;;4.78;1.00;;;;;;;;;;4997462;28;20788;-57
2022/03/07 14:17:34;;;;;;;6.40;0.88;;;;;;;;;;5012412;28;20533;-56
2022/03/07 14:20:01;;;;;;;3.35;1.00;;;;;;;;;;4996092;28;20072;-57
2022/03/07 14:22:27;;;;;;;3.35;1.00;;;;;;;;;;4995568;28;20089;-56
2022/03/07 14:24:53;;;;;;;3.83;0.80;;;;;;;;;;5011477;28;20137;-55
2022/03/07 14:27:23;;;;;;;1.95;0.70;;;;;;;;;;4994220;28;20081;-57
2022/03/07 14:29:49;;;;;;;2.40;0.70;;;;;;;;;;4995298;28;20033;-58
2022/03/07 14:32:15;;;;;;;2.13;0.70;;;;;;;;;;4996841;28;20518;-58
2022/03/07 14:34:41;;;;;;;3.95;0.85;;;;;;;;;;4994299;28;20041;-57
2022/03/07 14:37:07;;;;;;;3.03;0.90;;;;;;;;;;4999607;28;20558;-58
2022/03/07 14:39:33;;;;;;;3.85;0.77;;;;;;;;;;4998867;28;20049;-58